Time;durP1;ratioP1;P1;durP2;ratioP2;P2;SDS_P1;SDS_P2;PMS_P1;PMS_P2;Temp;Humidity;BMP_temperature;BMP_pressure;BME280_temperature;BME280_humidity;BME280_pressure;Samples;Min_cycle;Max_cycle;Signal;HPM_P1;HPM_P2
2021/03/28 00:01:21;;;;;;;50.45;33.65;;;;;;;5.03;59.45;101402.86;1771806;80;21131;-58
2021/03/28 00:03:59;;;;;;;50.12;33.35;;;;;;;4.98;59.54;101392.59;1757320;80;21285;-59
2021/03/28 00:06:33;;;;;;;55.45;34.63;;;;;;;4.91;59.82;101395.06;1760640;80;21201;-57
2021/03/28 00:09:22;;;;;;;55.98;34.03;;;;;;;4.87;59.96;101392.17;1757170;80;21205;-58
2021/03/28 00:12:05;;;;;;;56.92;34.58;;;;;;;4.86;60.22;101389.63;1758937;80;21191;-59
2021/03/28 00:14:39;;;;;;;59.50;33.20;;;;;;;4.81;60.35;101392.44;1734787;80;21184;-59
2021/03/28 00:17:23;;;;;;;49.75;31.48;;;;;;;4.81;60.35;101392.44;1731896;80;21225;-59
2021/03/28 00:20:16;;;;;;;50.23;26.87;;;;;;;4.82;60.41;101382.37;1760749;80;21175;-59
2021/03/28 00:23:25;;;;;;;41.33;24.67;;;;;;;5.10;60.84;101388.64;1751384;80;21148;-59
2021/03/28 00:26:03;;;;;;;42.15;26.37;;;;;;;5.10;60.84;101388.64;1759133;80;21205;-58
2021/03/28 00:28:40;;;;;;;45.55;28.27;;;;;;;5.14;61.17;101384.14;1761738;80;21250;-59
2021/03/28 00:31:23;;;;;;;52.23;31.75;;;;;;;5.14;61.27;101390.20;1743244;80;21733;-58
2021/03/28 00:34:14;;;;;;;47.40;31.55;;;;;;;5.11;61.31;101387.74;1751835;80;21187;-59
2021/03/28 00:37:06;;;;;;;54.25;34.70;;;;;;;5.08;61.42;101385.69;1703299;80;21674;-59
2021/03/28 00:39:47;;;;;;;48.60;31.60;;;;;;;5.02;61.51;101383.72;1741965;80;21136;-59
2021/03/28 00:42:32;;;;;;;55.25;32.48;;;;;;;4.98;61.61;101399.12;1724687;82;21174;-59
2021/03/28 00:45:23;;;;;;;48.25;29.63;;;;;;;4.95;61.48;101401.84;1744100;80;21155;-59
2021/03/28 00:48:22;;;;;;;48.95;27.82;;;;;;;4.87;61.57;101399.16;1744848;80;21902;-59
2021/03/28 00:51:17;;;;;;;44.05;25.80;;;;;;;4.87;61.57;101399.16;1743689;80;21519;-59
2021/03/28 00:53:58;;;;;;;42.10;26.20;;;;;;;4.75;61.99;101405.24;1746130;80;21194;-58
2021/03/28 00:56:41;;;;;;;41.53;25.00;;;;;;;4.63;62.15;101400.05;1704554;80;21178;-58
2021/03/28 00:59:26;;;;;;;47.05;26.55;;;;;;;4.59;62.20;101399.80;1746120;80;21214;-58
2021/03/28 01:02:32;;;;;;;37.30;24.00;;;;;;;4.61;62.09;101396.67;1869289;74;22285;-59
2021/03/28 01:05:39;;;;;;;42.83;27.60;;;;;;;4.59;61.98;101393.70;1842803;75;21016;-59
2021/03/28 01:08:33;;;;;;;41.70;26.07;;;;;;;4.55;61.68;101402.11;1841064;75;22622;-58
2021/03/28 01:11:16;;;;;;;41.00;24.18;;;;;;;4.48;61.68;101398.05;1854404;76;21032;-59
2021/03/28 01:14:17;;;;;;;39.08;24.72;;;;;;;4.42;61.81;101403.48;1833819;75;21184;-59
2021/03/28 01:17:13;;;;;;;43.55;24.40;;;;;;;4.38;62.05;101401.91;1848491;75;21172;-59
2021/03/28 01:20:23;;;;;;;40.05;22.93;;;;;;;4.33;62.08;101391.66;1842735;75;21203;-59
2021/03/28 01:23:05;;;;;;;33.50;23.27;;;;;;;4.32;61.95;101403.44;1828352;77;21198;-59
2021/03/28 01:25:56;;;;;;;40.10;24.07;;;;;;;4.28;61.80;101403.55;1817246;77;21602;-59
2021/03/28 01:28:35;;;;;;;51.28;33.18;;;;;;;4.27;61.83;101394.52;1847232;74;27822;-59
2021/03/28 01:31:35;;;;;;;38.38;22.98;;;;;;;4.38;61.41;101398.84;1843820;76;21164;-59
2021/03/28 01:34:17;;;;;;;40.50;24.98;;;;;;;4.62;60.65;101401.41;1841292;76;21207;-59
2021/03/28 01:37:05;;;;;;;42.20;24.92;;;;;;;4.65;60.38;101395.63;1845486;76;21634;-59
2021/03/28 01:39:53;;;;;;;48.20;22.15;;;;;;;4.70;60.33;101399.83;1822175;76;21180;-58
2021/03/28 01:42:44;;;;;;;36.05;23.50;;;;;;;4.70;60.12;101405.04;1845216;76;21136;-59
2021/03/28 01:45:29;;;;;;;33.60;21.15;;;;;;;4.62;60.05;101404.89;1806539;76;21179;-58
2021/03/28 01:48:45;;;;;;;39.40;25.55;;;;;;;4.58;60.49;101399.38;1838034;76;21187;-59
2021/03/28 01:51:37;;;;;;;33.35;20.50;;;;;;;4.53;60.53;101403.92;1853108;76;21041;-58
2021/03/28 01:54:22;;;;;;;36.45;21.42;;;;;;;4.44;60.61;101410.81;1816842;76;21099;-59
2021/03/28 01:57:29;;;;;;;34.25;24.00;;;;;;;4.36;60.70;101408.48;1846799;76;21128;-59
2021/03/28 02:00:20;;;;;;;40.12;21.60;;;;;;;4.30;60.57;101415.68;1846221;76;21132;-59
2021/03/28 02:03:18;;;;;;;33.25;21.95;;;;;;;4.22;60.67;101418.12;1849473;76;22080;-59
2021/03/28 02:06:00;;;;;;;33.45;20.68;;;;;;;4.17;60.77;101417.88;1837902;76;21415;-59
2021/03/28 02:08:48;;;;;;;33.02;21.40;;;;;;;4.03;61.28;101428.80;1796429;76;21174;-58
2021/03/28 02:11:41;;;;;;;33.40;20.48;;;;;;;3.88;61.67;101421.95;1843236;77;21104;-60
2021/03/28 02:14:49;;;;;;;31.10;19.67;;;;;;;3.83;61.89;101421.27;1836317;76;21171;-59
2021/03/28 02:17:45;;;;;;;30.68;21.57;;;;;;;3.80;61.97;101413.98;1838824;76;21116;-59
2021/03/28 02:20:29;;;;;;;33.90;19.80;;;;;;;3.76;61.91;101418.92;1839180;76;21186;-59
2021/03/28 02:23:17;;;;;;;37.63;22.25;;;;;;;3.70;61.87;101416.94;1847852;76;21136;-58
2021/03/28 02:26:05;;;;;;;40.90;22.73;;;;;;;3.64;61.87;101415.83;1848148;76;21100;-59
2021/03/28 02:28:44;;;;;;;37.88;22.98;;;;;;;3.60;61.93;101418.59;1838810;76;21124;-59
2021/03/28 02:31:28;;;;;;;35.45;22.67;;;;;;;3.54;61.96;101414.45;1841195;76;21555;-59
2021/03/28 02:34:31;;;;;;;39.45;23.65;;;;;;;3.50;61.91;101420.22;1842501;76;21132;-59
2021/03/28 02:37:19;;;;;;;34.05;22.27;;;;;;;3.45;62.04;101412.18;1815978;77;21599;-59
2021/03/28 02:39:55;;;;;;;37.25;23.42;;;;;;;3.39;62.23;101418.42;1848823;76;21173;-59
2021/03/28 02:42:28;;;;;;;38.92;25.20;;;;;;;3.35;62.45;101412.93;1818265;76;21179;-59
2021/03/28 02:45:23;;;;;;;37.42;23.05;;;;;;;3.28;62.61;101421.84;1806380;77;21178;-59
2021/03/28 02:48:22;;;;;;;36.77;22.35;;;;;;;3.26;62.59;101422.33;1812521;77;21570;-60
2021/03/28 02:51:23;;;;;;;36.95;23.38;;;;;;;3.21;62.66;101419.90;1813564;76;21140;-58
2021/03/28 02:54:09;;;;;;;33.13;22.95;;;;;;;3.19;62.71;101416.94;1815689;76;21116;-59
2021/03/28 02:57:00;;;;;;;36.03;23.18;;;;;;;3.15;62.63;101420.09;1812762;77;21168;-59
2021/03/28 02:59:48;;;;;;;34.88;21.82;;;;;;;3.11;62.75;101419.77;1747497;77;21139;-59
2021/03/28 03:02:32;;;;;;;32.35;22.20;;;;;;;3.11;62.86;101424.97;1817439;77;21211;-59
2021/03/28 03:05:13;;;;;;;31.82;21.15;;;;;;;3.21;62.77;101417.73;1839458;76;21092;-59
2021/03/28 03:08:00;;;;;;;36.53;21.75;;;;;;;3.31;62.69;101415.22;1842683;76;21155;-59
2021/03/28 03:10:40;;;;;;;36.60;23.02;;;;;;;3.40;62.68;101412.33;1804278;76;21100;-59
2021/03/28 03:13:36;;;;;;;37.35;22.35;;;;;;;3.50;62.39;101412.87;1818542;76;21206;-59
2021/03/28 03:16:44;;;;;;;35.92;23.70;;;;;;;3.50;62.09;101418.08;1846570;76;21100;-58
2021/03/28 03:19:54;;;;;;;36.10;22.80;;;;;;;3.47;61.97;101424.22;1809303;77;21188;-58
2021/03/28 03:23:02;;;;;;;39.92;23.60;;;;;;;3.44;62.15;101425.62;1833983;76;21172;-58
2021/03/28 03:26:14;;;;;;;42.90;24.98;;;;;;;3.43;62.19;101418.73;1835415;76;21540;-58
2021/03/28 03:29:21;;;;;;;43.55;25.15;;;;;;;3.40;62.21;101420.59;1835158;76;21227;-59
2021/03/28 03:32:37;;;;;;;33.63;22.40;;;;;;;3.33;62.25;101414.28;1835632;77;21128;-59
2021/03/28 03:35:36;;;;;;;35.05;22.65;;;;;;;3.25;62.34;101420.19;1833592;76;21155;-58
2021/03/28 03:38:48;;;;;;;40.28;24.02;;;;;;;3.18;62.24;101422.59;1835214;76;21184;-58
2021/03/28 03:41:34;;;;;;;36.17;23.57;;;;;;;3.11;62.25;101424.97;1841519;77;21195;-59
2021/03/28 03:44:29;;;;;;;40.00;23.47;;;;;;;3.04;62.31;101429.52;1839529;76;22040;-60
2021/03/28 03:47:10;;;;;;;34.53;21.82;;;;;;;2.98;62.95;101425.83;1838508;76;21180;-59
2021/03/28 03:50:04;;;;;;;36.30;23.00;;;;;;;2.97;63.60;101429.31;1834870;76;21587;-59
2021/03/28 03:52:58;;;;;;;37.90;24.67;;;;;;;3.01;63.82;101427.04;1846162;76;21128;-59
2021/03/28 03:55:46;;;;;;;35.17;24.72;;;;;;;3.04;63.72;101427.38;1802059;76;21148;-60
2021/03/28 03:58:31;;;;;;;43.42;24.32;;;;;;;3.04;63.57;101433.42;1805401;76;22867;-59
2021/03/28 04:01:21;;;;;;;39.45;24.95;;;;;;;3.01;63.62;101433.97;1837848;76;21164;-59
2021/03/28 04:04:06;;;;;;;35.63;24.23;;;;;;;2.99;63.58;101430.11;1838631;76;21196;-59
2021/03/28 04:07:05;;;;;;;38.98;24.95;;;;;;;3.00;63.52;101429.69;1836134;76;21148;-59
2021/03/28 04:09:48;;;;;;;40.58;24.07;;;;;;;3.00;63.50;101429.69;1801604;77;21152;-59
2021/03/28 04:12:34;;;;;;;47.40;23.45;;;;;;;2.98;63.71;101434.94;1809399;77;21299;-58
2021/03/28 04:15:25;;;;;;;34.73;24.57;;;;;;;3.00;63.67;101433.13;1836554;76;21192;-59
2021/03/28 04:18:04;;;;;;;35.78;23.18;;;;;;;3.12;63.39;101435.78;1833372;76;21413;-59
2021/03/28 04:20:46;;;;;;;35.73;22.82;;;;;;;3.22;63.32;101437.65;1841978;76;21168;-59
2021/03/28 04:23:37;;;;;;;37.73;21.37;;;;;;;3.31;63.52;101439.94;1765523;79;21237;-59
2021/03/28 04:26:35;;;;;;;30.72;22.40;;;;;;;3.40;63.64;101438.80;1767482;79;21203;-59
2021/03/28 04:29:07;;;;;;;43.23;23.87;;;;;;;3.45;63.86;101444.24;1767324;79;21211;-59
2021/03/28 04:31:59;;;;;;;36.53;23.95;;;;;;;3.50;64.00;101444.09;1767797;79;21187;-59
2021/03/28 04:34:48;;;;;;;35.70;23.62;;;;;;;3.54;64.04;101449.12;1776213;79;21135;-58
2021/03/28 04:37:48;;;;;;;40.33;24.67;;;;;;;3.58;63.94;101447.73;1739634;79;21207;-59
2021/03/28 04:40:52;;;;;;;37.13;24.52;;;;;;;3.58;63.83;101449.90;1712703;80;21224;-59
2021/03/28 04:43:46;;;;;;;39.18;24.57;;;;;;;3.60;63.81;101455.89;1757405;79;21661;-58
2021/03/28 04:46:42;;;;;;;38.20;24.37;;;;;;;3.62;63.78;101457.15;1765515;79;21669;-57
2021/03/28 04:49:57;;;;;;;39.83;24.37;;;;;;;3.65;63.86;101450.55;1817683;76;22798;-61
2021/03/28 04:52:45;;;;;;;35.60;22.70;;;;;;;3.66;64.04;101456.12;1766355;79;21219;-58
2021/03/28 04:55:28;;;;;;;39.40;25.88;;;;;;;3.71;64.31;101455.52;1754342;79;21583;-57
2021/03/28 05:02:01;;;;;;;37.23;24.25;;;;;;;4.01;64.12;101452.30;1751532;79;22682;-58
2021/03/28 05:05:04;;;;;;;38.98;24.57;;;;;;;4.09;64.03;101455.94;1713697;82;21601;-60
2021/03/28 05:08:12;;;;;;;45.70;26.60;;;;;;;4.30;63.83;101454.77;1746197;80;21320;-61
2021/03/28 05:11:14;;;;;;;39.63;25.57;;;;;;;4.47;63.52;101458.88;1738236;80;21069;-61
2021/03/28 05:14:18;;;;;;;42.95;23.87;;;;;;;4.63;63.24;101453.96;1718552;81;21089;-62
2021/03/28 05:17:15;;;;;;;38.70;24.92;;;;;;;4.78;62.97;101453.83;1692307;81;21220;-61
2021/03/28 05:20:06;;;;;;;44.42;25.25;;;;;;;4.90;62.64;101455.95;1714164;81;21143;-61
2021/03/28 05:23:18;;;;;;;39.40;25.50;;;;;;;4.99;62.57;101457.34;1689611;81;21406;-61
2021/03/28 05:26:37;;;;;;;40.58;24.18;;;;;;;5.05;62.43;101459.72;1725787;81;21085;-63
2021/03/28 05:30:02;;;;;;;40.88;25.92;;;;;;;5.13;62.04;101456.35;1672606;83;21204;-62
2021/03/28 05:32:56;;;;;;;39.65;25.02;;;;;;;5.18;61.79;101458.32;1709051;82;21697;-60
2021/03/28 05:35:57;;;;;;;40.83;26.33;;;;;;;5.25;61.53;101456.78;1667537;84;21235;-61
2021/03/28 05:39:02;;;;;;;36.95;24.55;;;;;;;5.31;61.37;101457.81;1664421;84;21223;-62
2021/03/28 05:42:04;;;;;;;38.08;24.20;;;;;;;5.40;61.10;101452.23;1660513;84;21224;-60
2021/03/28 05:44:58;;;;;;;48.68;24.05;;;;;;;5.49;60.66;101453.61;1666561;84;21211;-61
2021/03/28 05:47:56;;;;;;;38.33;23.38;;;;;;;5.64;60.42;101455.57;1827603;76;22797;-62
2021/03/28 05:51:15;;;;;;;32.75;21.52;;;;;;;5.71;60.42;101460.92;1803746;79;21632;-59
2021/03/28 05:54:21;;;;;;;31.62;20.50;;;;;;;5.82;60.37;101464.86;1792379;77;21194;-57
2021/03/28 05:57:31;;;;;;;36.45;23.02;;;;;;;5.92;60.05;101466.16;1765630;79;21208;-58
2021/03/28 06:00:28;;;;;;;38.98;21.77;;;;;;;6.01;59.96;101462.33;1794188;77;21192;-56
2021/03/28 06:03:54;;;;;;;41.02;23.35;;;;;;;6.13;59.83;101463.92;1798617;77;21214;-55
2021/03/28 06:06:42;;;;;;;33.75;23.15;;;;;;;6.25;59.37;101461.69;1672811;84;21689;-57
2021/03/28 06:10:03;;;;;;;35.73;23.70;;;;;;;6.37;58.89;101461.16;1670105;84;21268;-56
2021/03/28 06:12:49;;;;;;;35.52;21.93;;;;;;;6.49;58.35;101467.13;1671961;84;21252;-56
2021/03/28 06:16:09;;;;;;;35.68;20.52;;;;;;;6.66;57.97;101465.52;1643484;85;21673;-58
2021/03/28 06:19:17;;;;;;;38.65;21.23;;;;;;;6.86;57.04;101463.27;1615855;87;21314;-58
2021/03/28 06:22:14;;;;;;;35.20;21.45;;;;;;;6.86;57.04;101463.27;1649088;85;22386;-57
2021/03/28 06:36:21;;;;;;;30.72;19.45;;;;;;;7.40;56.18;101460.68;1773382;79;24371;-58
2021/03/28 06:39:25;;;;;;;37.08;22.05;;;;;;;7.45;55.73;101456.06;1773088;79;21216;-59
2021/03/28 06:52:50;;;;;;;35.85;22.00;;;;;;;7.99;54.79;101450.70;1891363;74;22663;-58
2021/03/28 06:55:42;;;;;;;34.73;22.90;;;;;;;7.98;54.69;101445.94;1839078;76;21569;-58
2021/03/28 06:58:56;;;;;;;40.03;23.10;;;;;;;8.10;54.45;101448.81;1843994;76;21198;-57
2021/03/28 07:01:47;;;;;;;33.90;22.52;;;;;;;8.21;54.79;101450.42;1862206;75;21724;-59
2021/03/28 07:04:40;;;;;;;37.73;24.47;;;;;;;8.35;54.56;101448.36;1835404;76;21210;-58
2021/03/28 07:07:39;;;;;;;40.17;24.63;;;;;;;8.53;54.11;101440.00;1833191;76;22796;-59
2021/03/28 07:10:56;;;;;;;33.20;23.87;;;;;;;8.60;53.57;101441.36;1805627;77;21216;-58
2021/03/28 07:14:00;;;;;;;32.70;22.10;;;;;;;8.70;53.35;101445.64;1772149;77;25857;-57
2021/03/28 07:17:03;;;;;;;35.05;23.80;;;;;;;8.80;53.11;101440.25;1803773;77;21216;-59
2021/03/28 07:20:00;;;;;;;35.17;21.10;;;;;;;8.91;52.70;101444.92;1796735;79;21061;-59
2021/03/28 07:23:01;;;;;;;36.35;21.12;;;;;;;9.00;52.27;101433.89;1794663;79;21363;-58
2021/03/28 07:25:52;;;;;;;25.55;16.32;;;;;;;9.13;52.02;101431.42;1804805;77;21199;-58
2021/03/28 07:28:54;;;;;;;24.12;14.38;;;;;;;9.27;51.95;101430.63;1804874;79;21202;-58
2021/03/28 07:31:45;;;;;;;29.92;18.30;;;;;;;9.47;50.48;101424.21;1796475;79;21370;-59
2021/03/28 07:34:30;;;;;;;29.12;18.30;;;;;;;9.74;50.61;101423.03;1799828;77;21138;-58
2021/03/28 07:37:46;;;;;;;27.25;16.60;;;;;;;9.95;50.14;101427.48;1764082;80;21207;-58
2021/03/28 07:40:52;;;;;;;30.37;18.03;;;;;;;10.22;49.38;101417.05;1813063;76;28510;-59
2021/03/28 07:43:48;;;;;;;22.25;13.93;;;;;;;10.58;48.00;101423.59;1791326;79;21187;-58
2021/03/28 07:46:59;;;;;;;19.95;10.72;;;;;;;11.03;47.01;101422.50;1798205;78;21236;-58
2021/03/28 07:50:02;;;;;;;18.80;10.60;;;;;;;11.22;45.56;101415.57;1797439;79;21076;-59
2021/03/28 07:53:17;;;;;;;16.65;10.43;;;;;;;11.46;44.61;101421.82;1797222;78;21068;-56
2021/03/28 07:56:16;;;;;;;17.12;10.20;;;;;;;11.68;42.01;101410.69;1796262;77;21677;-59
2021/03/28 07:59:01;;;;;;;19.17;11.97;;;;;;;11.84;41.72;101403.88;1802908;79;21613;-59
2021/03/28 08:01:45;;;;;;;18.37;11.03;;;;;;;11.96;40.93;101410.13;1803247;78;21217;-58
2021/03/28 08:04:43;;;;;;;18.02;9.93;;;;;;;12.03;40.55;101398.67;1772152;79;21186;-57
2021/03/28 08:07:53;;;;;;;19.27;10.98;;;;;;;12.12;40.30;101403.77;1799759;78;21378;-58
2021/03/28 08:10:51;;;;;;;19.32;10.08;;;;;;;12.22;40.73;101394.25;1799145;79;21552;-59
2021/03/28 08:13:58;;;;;;;22.17;13.48;;;;;;;12.37;40.53;101387.04;1766384;78;21630;-59
2021/03/28 08:16:32;;;;;;;;;;;;;;;12.52;40.61;101385.09;1802714;77;22912;-57
2021/03/28 08:19:16;;;;;;;18.30;10.80;;;;;;;12.69;40.18;101391.30;1773498;79;20307;-58
2021/03/28 08:22:44;;;;;;;17.85;10.45;;;;;;;12.80;40.18;101383.45;1827026;76;22760;-59
2021/03/28 08:25:31;;;;;;;19.32;10.10;;;;;;;12.91;38.97;101384.45;1739903;80;21191;-56
2021/03/28 08:28:32;;;;;;;18.42;9.63;;;;;;;13.03;37.92;101388.84;1737276;80;21163;-56
2021/03/28 08:31:18;;;;;;;17.02;9.25;;;;;;;13.12;36.25;101384.66;1744188;80;21179;-57
2021/03/28 08:34:20;;;;;;;15.25;9.80;;;;;;;13.13;36.44;101379.27;1716603;81;21131;-56
2021/03/28 08:37:17;;;;;;;16.23;9.38;;;;;;;13.16;36.01;101382.14;1747344;81;21615;-57
2021/03/28 08:40:10;;;;;;;17.85;10.03;;;;;;;13.22;36.14;101378.22;1749653;81;21363;-56
2021/03/28 08:43:32;;;;;;;16.73;9.65;;;;;;;13.28;36.27;101373.31;1793870;77;21208;-56
2021/03/28 08:46:39;;;;;;;14.85;8.28;;;;;;;13.36;35.82;101371.42;1796735;79;21100;-57
2021/03/28 08:49:16;;;;;;;16.40;10.35;;;;;;;13.43;35.89;101368.70;1794536;79;21147;-57
2021/03/28 08:51:56;;;;;;;13.58;8.93;;;;;;;13.49;35.28;101369.53;1798571;79;21642;-59
2021/03/28 08:55:12;;;;;;;17.87;9.83;;;;;;;13.53;35.58;101367.03;1797198;77;21155;-59
2021/03/28 08:58:03;;;;;;;18.07;9.25;;;;;;;13.61;35.07;101362.94;1797947;79;21372;-57
2021/03/28 09:01:07;;;;;;;19.02;9.30;;;;;;;13.71;34.77;101355.48;1824064;76;22706;-58
2021/03/28 09:03:57;;;;;;;16.87;9.85;;;;;;;13.73;34.00;101362.84;1782382;77;21152;-59
2021/03/28 09:06:59;;;;;;;16.20;9.10;;;;;;;13.76;34.47;101363.06;1753508;77;21224;-56
2021/03/28 09:09:52;;;;;;;19.55;9.78;;;;;;;13.81;34.96;101359.58;1788052;77;21005;-56
2021/03/28 09:13:07;;;;;;;14.20;8.20;;;;;;;13.92;34.38;101358.75;1805430;77;21503;-57
2021/03/28 09:16:02;;;;;;;15.78;9.55;;;;;;;13.97;34.29;101363.66;1803490;77;21100;-62
2021/03/28 09:18:55;;;;;;;14.85;9.63;;;;;;;14.02;34.31;101350.91;1761613;77;21180;-59
2021/03/28 09:21:51;;;;;;;18.27;9.90;;;;;;;14.06;34.18;101363.78;1804500;77;21447;-57
2021/03/28 09:24:49;;;;;;;21.57;10.93;;;;;;;14.10;34.79;101359.08;1805100;77;21168;-58
2021/03/28 09:27:34;;;;;;;17.23;10.65;;;;;;;14.18;34.96;101355.34;1800184;77;21156;-57
2021/03/28 09:30:27;;;;;;;;;;;;;;;14.30;34.86;101355.68;1740102;77;21772;-58
2021/03/28 09:33:41;;;;;;;13.98;9.15;;;;;;;14.43;34.35;101346.27;1806169;77;20212;-59
2021/03/28 09:36:46;;;;;;;15.88;9.53;;;;;;;14.47;34.15;101344.21;1770410;77;21176;-57
2021/03/28 09:39:39;;;;;;;18.42;9.60;;;;;;;14.49;34.25;101343.59;1800661;77;21638;-58
2021/03/28 09:42:39;;;;;;;17.35;9.95;;;;;;;14.55;34.40;101346.25;1768214;79;21184;-59
2021/03/28 09:45:26;;;;;;;14.55;9.28;;;;;;;14.61;34.74;101345.79;1809985;77;21119;-58
2021/03/28 09:48:22;;;;;;;19.85;10.40;;;;;;;14.73;34.63;101339.97;1808233;77;21575;-59
2021/03/28 09:51:15;;;;;;;19.82;10.95;;;;;;;14.83;34.61;101335.59;1769432;79;21152;-57
2021/03/28 09:53:55;;;;;;;16.12;9.78;;;;;;;14.93;34.25;101340.48;1788248;77;21215;-58
2021/03/28 09:56:46;;;;;;;16.87;9.73;;;;;;;15.01;33.85;101335.37;1796930;79;21168;-58
2021/03/28 09:59:59;;;;;;;15.03;9.05;;;;;;;15.09;33.82;101334.72;1759826;79;21186;-61
2021/03/28 10:03:20;;;;;;;14.00;9.25;;;;;;;15.18;33.18;101332.63;1777124;77;21101;-58
2021/03/28 10:05:48;;;;;;;16.40;10.15;;;;;;;15.24;32.57;101332.59;1773159;78;21202;-56
2021/03/28 10:08:19;;;;;;;12.75;8.75;;;;;;;15.19;32.81;101325.02;1788682;77;21135;-59
2021/03/28 10:11:24;;;;;;;13.85;9.50;;;;;;;15.23;32.86;101323.80;1785888;77;21183;-58
2021/03/28 10:14:20;;;;;;;19.07;8.95;;;;;;;15.32;32.65;101326.64;1768247;79;21187;-59
2021/03/28 10:17:21;;;;;;;17.80;10.23;;;;;;;15.36;32.23;101317.44;1797303;77;21132;-58
2021/03/28 10:19:53;;;;;;;16.48;10.32;;;;;;;15.35;32.36;101324.56;1773608;79;21292;-60
2021/03/28 10:22:44;;;;;;;15.77;9.70;;;;;;;15.35;32.46;101317.94;1798062;77;22441;-57
2021/03/28 10:28:48;;;;;;;18.95;9.58;;;;;;;15.37;32.73;101308.03;1732286;81;21163;-60
2021/03/28 10:31:32;;;;;;;22.52;10.03;;;;;;;15.55;33.47;101296.80;1879904;74;23291;-62
2021/03/28 10:34:32;;;;;;;14.65;9.30;;;;;;;15.64;31.94;101296.02;1797602;79;21549;-57
2021/03/28 10:37:45;;;;;;;16.17;10.70;;;;;;;15.69;31.85;101300.92;1802084;78;21238;-58
2021/03/28 10:40:28;;;;;;;14.10;8.50;;;;;;;15.77;32.16;101292.67;1829459;77;22809;-57
2021/03/28 10:43:53;;;;;;;16.25;9.85;;;;;;;15.81;32.12;101289.75;1763880;80;21171;-59
2021/03/28 10:46:51;;;;;;;18.82;9.30;;;;;;;15.88;31.85;101298.84;1761696;78;21207;-62
2021/03/28 10:49:54;;;;;;;13.58;9.10;;;;;;;15.92;31.10;101294.94;1768716;78;21176;-58
2021/03/28 10:52:55;;;;;;;15.90;10.28;;;;;;;15.94;31.95;101292.52;1759409;78;21164;-61
2021/03/28 10:55:47;;;;;;;15.10;9.93;;;;;;;16.02;31.80;101287.86;1765965;80;21139;-57
2021/03/28 10:59:13;;;;;;;16.35;10.60;;;;;;;16.10;32.04;101286.67;1747499;80;21661;-62
2021/03/28 11:02:13;;;;;;;17.62;9.83;;;;;;;16.23;31.58;101279.78;1751982;79;22005;-58
2021/03/28 11:05:25;;;;;;;17.05;9.35;;;;;;;16.24;31.61;101277.95;1717643;79;21168;-58
2021/03/28 11:08:30;;;;;;;15.58;10.55;;;;;;;16.27;31.74;101273.23;1766602;78;21191;-57
2021/03/28 11:11:45;;;;;;;14.68;9.40;;;;;;;16.36;32.14;101270.23;1739192;80;21172;-58
2021/03/28 11:14:27;;;;;;;19.40;10.32;;;;;;;16.51;31.67;101268.00;1778487;78;21212;-61
2021/03/28 11:17:19;;;;;;;21.87;10.23;;;;;;;16.66;32.05;101264.41;1771585;79;22681;-58
2021/03/28 11:20:25;;;;;;;12.07;8.13;;;;;;;16.83;30.59;101265.53;1772582;78;21191;-58
2021/03/28 11:23:29;;;;;;;20.08;9.53;;;;;;;16.88;30.39;101268.63;1766386;80;21184;-58
2021/03/28 11:26:19;;;;;;;16.42;9.48;;;;;;;16.80;30.40;101264.48;1772076;79;21208;-60
2021/03/28 11:29:12;;;;;;;12.85;8.00;;;;;;;16.71;30.80;101254.22;1735413;78;21227;-58
2021/03/28 11:32:09;;;;;;;11.55;8.10;;;;;;;16.79;31.54;101252.16;1682010;84;21164;-58
2021/03/28 11:34:45;;;;;;;13.90;7.17;;;;;;;16.96;31.04;101252.78;1740516;81;21583;-58
2021/03/28 11:37:42;;;;;;;17.90;7.90;;;;;;;17.11;30.02;101244.36;1689565;82;21166;-63
2021/03/28 11:40:27;;;;;;;11.55;8.03;;;;;;;17.12;29.52;101250.86;1666911;84;21148;-59
2021/03/28 11:43:12;;;;;;;11.95;7.58;;;;;;;17.04;29.48;101252.08;1740379;80;21182;-61
2021/03/28 11:45:49;;;;;;;11.80;8.00;;;;;;;17.00;29.52;101240.06;1739522;81;21652;-59
2021/03/28 11:48:35;;;;;;;13.58;7.47;;;;;;;17.04;29.48;101242.27;1706720;80;22008;-56
2021/03/28 11:51:27;;;;;;;12.68;8.05;;;;;;;17.09;29.45;101247.98;1736493;81;21567;-59
2021/03/28 11:54:16;;;;;;;13.65;8.75;;;;;;;17.12;29.90;101230.92;1732835;81;21263;-59
2021/03/28 11:57:06;;;;;;;15.30;9.25;;;;;;;17.26;29.22;101230.94;1717776;82;21221;-58
2021/03/28 11:59:41;;;;;;;13.85;9.43;;;;;;;17.39;28.95;101230.11;1687629;82;21265;-57
2021/03/28 12:02:17;;;;;;;16.23;9.83;;;;;;;17.52;28.89;101234.28;1743665;81;21197;-56
2021/03/28 12:05:02;;;;;;;14.53;9.80;;;;;;;17.60;28.77;101230.36;1728108;80;21705;-57
2021/03/28 12:07:37;;;;;;;16.00;11.22;;;;;;;17.71;28.43;101224.02;1771842;80;21132;-57
2021/03/28 12:10:10;;;;;;;15.15;10.68;;;;;;;17.79;28.38;101220.94;1741250;80;21186;-56
2021/03/28 12:12:49;;;;;;;18.82;10.18;;;;;;;17.85;28.03;101214.17;1741070;80;21358;-58
2021/03/28 12:15:46;;;;;;;14.60;9.58;;;;;;;17.89;27.99;101212.11;1745142;81;21132;-57
2021/03/28 12:18:29;;;;;;;16.95;8.48;;;;;;;17.90;28.62;101213.26;1735364;81;21152;-56
2021/03/28 12:21:09;;;;;;;13.00;8.88;;;;;;;17.97;28.54;101213.02;1742232;80;21190;-57
2021/03/28 12:23:54;;;;;;;12.33;9.10;;;;;;;18.07;28.29;101208.96;1745476;80;21159;-58
2021/03/28 12:26:31;;;;;;;15.03;10.00;;;;;;;18.10;28.58;101205.97;1704539;80;21141;-56
2021/03/28 12:29:18;;;;;;;12.58;8.80;;;;;;;18.20;28.07;101197.91;1708493;82;21241;-57
2021/03/28 12:31:53;;;;;;;14.47;9.33;;;;;;;18.27;27.86;101196.30;1736067;81;21172;-58
2021/03/28 12:34:38;;;;;;;14.70;9.80;;;;;;;18.32;28.14;101188.67;1739828;80;21171;-56
2021/03/28 12:37:15;;;;;;;13.65;8.83;;;;;;;18.44;27.92;101199.10;1741427;80;21213;-56
2021/03/28 12:39:48;;;;;;;12.53;7.40;;;;;;;18.50;27.42;101193.16;1742215;80;21391;-57
2021/03/28 12:42:24;;;;;;;13.03;8.95;;;;;;;18.55;27.64;101190.36;1750625;80;21188;-55
2021/03/28 12:45:10;;;;;;;13.28;8.00;;;;;;;18.66;26.80;101186.63;1758055;79;21161;-56
2021/03/28 12:47:51;;;;;;;12.20;7.75;;;;;;;18.77;26.97;101186.02;1745764;80;21548;-57
2021/03/28 12:50:33;;;;;;;12.05;7.92;;;;;;;18.87;26.68;101189.45;1746801;80;21172;-55
2021/03/28 12:53:17;;;;;;;12.70;8.15;;;;;;;18.94;26.28;101185.14;1733554;80;21163;-56
2021/03/28 12:55:53;;;;;;;12.10;8.25;;;;;;;19.05;25.63;101184.88;1731756;80;21153;-57
2021/03/28 12:58:36;;;;;;;12.47;7.90;;;;;;;19.07;26.13;101178.88;1744602;79;21177;-56
2021/03/28 13:01:07;;;;;;;12.82;8.28;;;;;;;19.05;26.28;101176.88;1761323;79;21128;-57
2021/03/28 13:03:42;;;;;;;11.12;7.97;;;;;;;19.05;26.63;101180.05;1755022;79;21188;-58
2021/03/28 13:06:45;;;;;;;12.07;7.58;;;;;;;19.07;27.06;101168.72;1752833;79;22273;-57
2021/03/28 13:09:22;;;;;;;11.48;8.15;;;;;;;19.18;27.37;101167.59;1752455;80;21180;-57
2021/03/28 13:12:02;;;;;;;16.30;9.53;;;;;;;19.46;26.96;101164.20;1752711;80;21180;-58
2021/03/28 13:14:45;;;;;;;14.90;9.40;;;;;;;19.75;26.89;101162.45;1804286;77;22891;-56
2021/03/28 13:17:29;;;;;;;12.18;7.10;;;;;;;19.86;26.57;101162.15;1785420;80;22138;-56
2021/03/28 13:20:20;;;;;;;12.58;8.20;;;;;;;19.84;26.48;101158.81;1776163;78;21214;-57
2021/03/28 13:23:22;;;;;;;15.53;8.40;;;;;;;19.78;26.45;101156.80;1866031;74;21937;-57
2021/03/28 13:26:16;;;;;;;12.73;7.90;;;;;;;20.08;26.28;101154.49;1794874;77;21175;-58
2021/03/28 13:29:21;;;;;;;15.58;8.68;;;;;;;20.86;25.69;101156.27;1822391;77;21120;-57
2021/03/28 13:31:58;;;;;;;14.50;9.20;;;;;;;21.83;24.25;101150.12;1846771;77;21211;-58
2021/03/28 13:34:36;;;;;;;14.35;8.60;;;;;;;22.79;23.66;101145.61;1812066;77;21194;-58
2021/03/28 13:37:27;;;;;;;10.90;7.58;;;;;;;23.51;22.54;101140.04;1817319;77;21135;-58
2021/03/28 13:40:06;;;;;;;15.83;8.50;;;;;;;24.09;21.86;101140.00;1798446;78;21546;-57
2021/03/28 13:42:51;;;;;;;12.60;8.40;;;;;;;24.51;21.20;101129.36;1811214;75;21173;-57
2021/03/28 13:45:24;;;;;;;18.40;8.83;;;;;;;24.88;20.70;101120.11;1856630;77;21108;-56